sensor_id;sensor_type;location;lat;lon;timestamp;P1;durP1;ratioP1;P2;durP2;ratioP2
61054;SDS011;46939;48.940;8.258;2022-07-23T00:02:15;8.77;;;5.78;;
61054;SDS011;46939;48.940;8.258;2022-07-23T00:04:43;9.98;;;5.82;;
61054;SDS011;46939;48.940;8.258;2022-07-23T00:07:12;6.90;;;5.13;;
61054;SDS011;46939;48.940;8.258;2022-07-23T00:09:40;6.53;;;5.13;;
61054;SDS011;46939;48.940;8.258;2022-07-23T00:12:09;7.57;;;5.30;;
61054;SDS011;46939;48.940;8.258;2022-07-23T00:14:40;10.00;;;5.60;;
61054;SDS011;46939;48.940;8.258;2022-07-23T00:17:09;12.40;;;5.80;;
61054;SDS011;46939;48.940;8.258;2022-07-23T00:19:37;7.10;;;5.43;;
61054;SDS011;46939;48.940;8.258;2022-07-23T00:22:06;8.07;;;4.90;;
61054;SDS011;46939;48.940;8.258;2022-07-23T00:24:35;7.70;;;5.47;;
61054;SDS011;46939;48.940;8.258;2022-07-23T00:27:03;8.23;;;5.55;;
61054;SDS011;46939;48.940;8.258;2022-07-23T00:29:32;8.10;;;5.68;;
61054;SDS011;46939;48.940;8.258;2022-07-23T00:32:03;12.02;;;6.07;;
61054;SDS011;46939;48.940;8.258;2022-07-23T00:34:33;8.02;;;5.63;;
61054;SDS011;46939;48.940;8.258;2022-07-23T00:37:01;10.10;;;5.68;;
61054;SDS011;46939;48.940;8.258;2022-07-23T00:39:30;7.93;;;5.25;;
61054;SDS011;46939;48.940;8.258;2022-07-23T00:41:59;7.07;;;4.90;;
61054;SDS011;46939;48.940;8.258;2022-07-23T00:44:27;7.22;;;5.25;;
61054;SDS011;46939;48.940;8.258;2022-07-23T00:46:57;6.75;;;5.15;;
61054;SDS011;46939;48.940;8.258;2022-07-23T00:49:29;7.13;;;5.00;;
61054;SDS011;46939;48.940;8.258;2022-07-23T00:51:58;7.35;;;5.25;;
61054;SDS011;46939;48.940;8.258;2022-07-23T00:54:29;6.10;;;4.70;;
61054;SDS011;46939;48.940;8.258;2022-07-23T00:56:58;5.53;;;4.80;;
61054;SDS011;46939;48.940;8.258;2022-07-23T00:59:26;8.93;;;4.88;;
61054;SDS011;46939;48.940;8.258;2022-07-23T01:01:56;6.32;;;4.43;;
61054;SDS011;46939;48.940;8.258;2022-07-23T01:04:24;7.57;;;5.03;;
61054;SDS011;46939;48.940;8.258;2022-07-23T01:06:56;6.40;;;4.57;;
61054;SDS011;46939;48.940;8.258;2022-07-23T01:09:24;5.85;;;4.80;;
61054;SDS011;46939;48.940;8.258;2022-07-23T01:11:54;7.07;;;4.43;;
61054;SDS011;46939;48.940;8.258;2022-07-23T01:14:23;7.28;;;4.60;;
61054;SDS011;46939;48.940;8.258;2022-07-23T01:16:52;7.28;;;4.45;;
61054;SDS011;46939;48.940;8.258;2022-07-23T01:19:21;7.55;;;4.50;;
61054;SDS011;46939;48.940;8.258;2022-07-23T01:21:50;8.88;;;4.65;;
61054;SDS011;46939;48.940;8.258;2022-07-23T01:24:23;7.57;;;4.35;;
61054;SDS011;46939;48.940;8.258;2022-07-23T01:27:02;6.03;;;4.30;;
61054;SDS011;46939;48.940;8.258;2022-07-23T01:29:35;6.00;;;4.03;;
61054;SDS011;46939;48.940;8.258;2022-07-23T01:32:09;5.85;;;4.00;;
61054;SDS011;46939;48.940;8.258;2022-07-23T01:34:37;5.93;;;4.00;;
61054;SDS011;46939;48.940;8.258;2022-07-23T01:37:06;5.90;;;3.60;;
61054;SDS011;46939;48.940;8.258;2022-07-23T01:39:37;4.68;;;3.50;;
61054;SDS011;46939;48.940;8.258;2022-07-23T01:42:06;5.05;;;3.50;;
61054;SDS011;46939;48.940;8.258;2022-07-23T01:44:35;6.10;;;4.00;;
61054;SDS011;46939;48.940;8.258;2022-07-23T01:47:07;6.45;;;3.85;;
61054;SDS011;46939;48.940;8.258;2022-07-23T01:49:35;5.15;;;3.55;;
61054;SDS011;46939;48.940;8.258;2022-07-23T01:52:23;6.30;;;3.70;;
61054;SDS011;46939;48.940;8.258;2022-07-23T01:54:54;6.18;;;3.60;;
61054;SDS011;46939;48.940;8.258;2022-07-23T01:57:23;5.18;;;3.55;;
61054;SDS011;46939;48.940;8.258;2022-07-23T01:59:52;7.18;;;3.72;;
61054;SDS011;46939;48.940;8.258;2022-07-23T02:02:21;7.43;;;3.50;;
61054;SDS011;46939;48.940;8.258;2022-07-23T02:04:49;6.65;;;3.67;;
61054;SDS011;46939;48.940;8.258;2022-07-23T02:07:20;7.72;;;3.65;;
61054;SDS011;46939;48.940;8.258;2022-07-23T02:09:50;4.90;;;3.40;;
61054;SDS011;46939;48.940;8.258;2022-07-23T02:12:22;6.70;;;3.67;;
61054;SDS011;46939;48.940;8.258;2022-07-23T02:14:50;6.38;;;3.70;;
61054;SDS011;46939;48.940;8.258;2022-07-23T02:17:19;5.65;;;3.78;;
61054;SDS011;46939;48.940;8.258;2022-07-23T02:19:47;5.57;;;3.53;;
61054;SDS011;46939;48.940;8.258;2022-07-23T02:22:16;6.43;;;3.80;;
61054;SDS011;46939;48.940;8.258;2022-07-23T02:24:44;6.28;;;4.03;;
61054;SDS011;46939;48.940;8.258;2022-07-23T02:27:13;5.13;;;3.55;;
61054;SDS011;46939;48.940;8.258;2022-07-23T02:29:45;6.95;;;3.95;;
61054;SDS011;46939;48.940;8.258;2022-07-23T02:32:13;7.35;;;4.18;;
61054;SDS011;46939;48.940;8.258;2022-07-23T02:34:43;4.55;;;3.35;;
61054;SDS011;46939;48.940;8.258;2022-07-23T02:37:12;5.32;;;3.40;;
61054;SDS011;46939;48.940;8.258;2022-07-23T02:39:41;4.60;;;3.30;;
61054;SDS011;46939;48.940;8.258;2022-07-23T02:42:11;6.28;;;3.78;;
61054;SDS011;46939;48.940;8.258;2022-07-23T02:44:40;7.20;;;3.90;;
61054;SDS011;46939;48.940;8.258;2022-07-23T02:47:11;6.82;;;3.70;;
61054;SDS011;46939;48.940;8.258;2022-07-23T02:49:40;5.60;;;3.88;;
61054;SDS011;46939;48.940;8.258;2022-07-23T02:52:09;5.35;;;3.63;;
61054;SDS011;46939;48.940;8.258;2022-07-23T02:54:38;5.20;;;3.90;;
61054;SDS011;46939;48.940;8.258;2022-07-23T02:57:08;6.63;;;4.07;;
61054;SDS011;46939;48.940;8.258;2022-07-23T02:59:37;6.47;;;3.47;;
61054;SDS011;46939;48.940;8.258;2022-07-23T03:02:05;7.45;;;3.50;;
61054;SDS011;46939;48.940;8.258;2022-07-23T03:04:36;5.20;;;3.58;;
61054;SDS011;46939;48.940;8.258;2022-07-23T03:07:07;7.05;;;3.55;;
61054;SDS011;46939;48.940;8.258;2022-07-23T03:09:36;5.68;;;3.80;;
61054;SDS011;46939;48.940;8.258;2022-07-23T03:12:07;7.80;;;3.30;;
61054;SDS011;46939;48.940;8.258;2022-07-23T03:14:36;6.70;;;3.70;;
61054;SDS011;46939;48.940;8.258;2022-07-23T03:17:05;6.78;;;3.83;;
61054;SDS011;46939;48.940;8.258;2022-07-23T03:19:37;5.35;;;3.75;;
61054;SDS011;46939;48.940;8.258;2022-07-23T03:22:07;5.65;;;3.83;;
61054;SDS011;46939;48.940;8.258;2022-07-23T03:24:36;5.72;;;3.20;;
61054;SDS011;46939;48.940;8.258;2022-07-23T03:27:19;6.10;;;3.63;;
61054;SDS011;46939;48.940;8.258;2022-07-23T03:29:48;6.13;;;3.78;;
61054;SDS011;46939;48.940;8.258;2022-07-23T03:32:17;6.55;;;3.95;;
61054;SDS011;46939;48.940;8.258;2022-07-23T03:34:48;4.30;;;3.22;;
61054;SDS011;46939;48.940;8.258;2022-07-23T03:37:17;7.78;;;4.15;;
61054;SDS011;46939;48.940;8.258;2022-07-23T03:39:47;6.70;;;3.50;;
61054;SDS011;46939;48.940;8.258;2022-07-23T03:42:16;5.68;;;3.63;;
61054;SDS011;46939;48.940;8.258;2022-07-23T03:44:45;6.18;;;3.35;;
61054;SDS011;46939;48.940;8.258;2022-07-23T03:47:14;6.53;;;3.47;;
61054;SDS011;46939;48.940;8.258;2022-07-23T03:49:49;5.85;;;3.90;;
61054;SDS011;46939;48.940;8.258;2022-07-23T03:52:18;6.22;;;3.60;;
61054;SDS011;46939;48.940;8.258;2022-07-23T03:54:46;6.22;;;3.58;;
61054;SDS011;46939;48.940;8.258;2022-07-23T03:57:15;5.50;;;3.30;;
61054;SDS011;46939;48.940;8.258;2022-07-23T03:59:44;7.20;;;3.75;;
61054;SDS011;46939;48.940;8.258;2022-07-23T04:02:12;5.20;;;3.83;;
61054;SDS011;46939;48.940;8.258;2022-07-23T04:04:41;5.25;;;3.53;;
61054;SDS011;46939;48.940;8.258;2022-07-23T04:07:12;6.05;;;3.88;;
61054;SDS011;46939;48.940;8.258;2022-07-23T04:09:43;7.25;;;3.50;;
61054;SDS011;46939;48.940;8.258;2022-07-23T04:12:12;5.63;;;3.55;;
61054;SDS011;46939;48.940;8.258;2022-07-23T04:14:40;6.82;;;3.80;;
61054;SDS011;46939;48.940;8.258;2022-07-23T04:17:09;10.73;;;3.70;;
61054;SDS011;46939;48.940;8.258;2022-07-23T04:19:38;5.40;;;3.88;;
61054;SDS011;46939;48.940;8.258;2022-07-23T04:22:12;4.95;;;3.58;;
61054;SDS011;46939;48.940;8.258;2022-07-23T04:24:41;5.15;;;3.90;;
61054;SDS011;46939;48.940;8.258;2022-07-23T04:27:10;5.07;;;3.55;;
61054;SDS011;46939;48.940;8.258;2022-07-23T04:29:39;6.72;;;3.50;;
61054;SDS011;46939;48.940;8.258;2022-07-23T04:32:07;7.38;;;3.65;;
61054;SDS011;46939;48.940;8.258;2022-07-23T04:34:36;4.47;;;3.42;;
61054;SDS011;46939;48.940;8.258;2022-07-23T04:37:06;6.80;;;4.03;;
61054;SDS011;46939;48.940;8.258;2022-07-23T04:39:38;9.48;;;4.10;;
61054;SDS011;46939;48.940;8.258;2022-07-23T04:42:06;5.43;;;3.63;;
61054;SDS011;46939;48.940;8.258;2022-07-23T04:44:35;5.88;;;3.85;;
61054;SDS011;46939;48.940;8.258;2022-07-23T04:47:05;8.20;;;3.90;;
61054;SDS011;46939;48.940;8.258;2022-07-23T04:49:34;5.13;;;3.75;;
61054;SDS011;46939;48.940;8.258;2022-07-23T04:52:02;6.28;;;3.85;;
61054;SDS011;46939;48.940;8.258;2022-07-23T04:54:32;6.90;;;3.67;;
61054;SDS011;46939;48.940;8.258;2022-07-23T04:57:03;4.93;;;3.63;;
61054;SDS011;46939;48.940;8.258;2022-07-23T04:59:31;8.50;;;3.70;;
61054;SDS011;46939;48.940;8.258;2022-07-23T05:02:03;7.25;;;3.80;;
61054;SDS011;46939;48.940;8.258;2022-07-23T05:04:31;9.85;;;3.67;;
61054;SDS011;46939;48.940;8.258;2022-07-23T05:07:01;6.95;;;3.78;;
61054;SDS011;46939;48.940;8.258;2022-07-23T05:09:31;8.07;;;3.78;;
61054;SDS011;46939;48.940;8.258;2022-07-23T05:12:03;6.38;;;4.03;;
61054;SDS011;46939;48.940;8.258;2022-07-23T05:14:33;7.73;;;3.93;;
61054;SDS011;46939;48.940;8.258;2022-07-23T05:17:02;5.30;;;3.75;;
61054;SDS011;46939;48.940;8.258;2022-07-23T05:19:31;6.10;;;3.75;;
61054;SDS011;46939;48.940;8.258;2022-07-23T05:22:00;8.63;;;3.67;;
61054;SDS011;46939;48.940;8.258;2022-07-23T05:24:29;5.68;;;3.60;;
61054;SDS011;46939;48.940;8.258;2022-07-23T05:26:58;4.70;;;3.35;;
61054;SDS011;46939;48.940;8.258;2022-07-23T05:29:29;6.78;;;4.07;;
61054;SDS011;46939;48.940;8.258;2022-07-23T05:31:58;6.07;;;4.10;;
61054;SDS011;46939;48.940;8.258;2022-07-23T05:34:29;5.82;;;4.03;;
61054;SDS011;46939;48.940;8.258;2022-07-23T05:36:58;4.97;;;3.60;;
61054;SDS011;46939;48.940;8.258;2022-07-23T05:39:27;5.07;;;3.58;;
61054;SDS011;46939;48.940;8.258;2022-07-23T05:41:56;5.45;;;3.33;;
61054;SDS011;46939;48.940;8.258;2022-07-23T05:44:25;6.40;;;3.90;;
61054;SDS011;46939;48.940;8.258;2022-07-23T05:46:57;6.05;;;3.70;;
61054;SDS011;46939;48.940;8.258;2022-07-23T05:49:27;19.58;;;6.45;;
61054;SDS011;46939;48.940;8.258;2022-07-23T05:52:03;10.98;;;4.60;;
61054;SDS011;46939;48.940;8.258;2022-07-23T05:54:52;11.30;;;5.10;;
61054;SDS011;46939;48.940;8.258;2022-07-23T05:57:21;7.18;;;4.60;;
61054;SDS011;46939;48.940;8.258;2022-07-23T05:59:49;9.10;;;4.78;;
61054;SDS011;46939;48.940;8.258;2022-07-23T06:02:20;10.48;;;5.20;;
61054;SDS011;46939;48.940;8.258;2022-07-23T06:04:49;10.50;;;5.00;;
61054;SDS011;46939;48.940;8.258;2022-07-23T06:07:26;9.65;;;4.60;;
61054;SDS011;46939;48.940;8.258;2022-07-23T06:09:56;12.57;;;5.28;;
61054;SDS011;46939;48.940;8.258;2022-07-23T06:12:24;7.97;;;5.20;;
61054;SDS011;46939;48.940;8.258;2022-07-23T06:14:53;9.27;;;5.00;;
61054;SDS011;46939;48.940;8.258;2022-07-23T06:17:25;8.43;;;5.05;;
61054;SDS011;46939;48.940;8.258;2022-07-23T06:19:53;9.40;;;5.13;;
61054;SDS011;46939;48.940;8.258;2022-07-23T06:22:22;8.27;;;5.38;;
61054;SDS011;46939;48.940;8.258;2022-07-23T06:24:51;9.70;;;5.20;;
61054;SDS011;46939;48.940;8.258;2022-07-23T06:27:20;9.45;;;5.63;;
61054;SDS011;46939;48.940;8.258;2022-07-23T06:29:49;8.27;;;5.30;;
61054;SDS011;46939;48.940;8.258;2022-07-23T06:32:18;6.93;;;5.38;;
61054;SDS011;46939;48.940;8.258;2022-07-23T06:34:49;12.00;;;6.05;;
61054;SDS011;46939;48.940;8.258;2022-07-23T06:37:20;8.10;;;5.67;;
61054;SDS011;46939;48.940;8.258;2022-07-23T06:39:48;6.57;;;5.07;;
61054;SDS011;46939;48.940;8.258;2022-07-23T06:42:17;9.60;;;5.20;;
61054;SDS011;46939;48.940;8.258;2022-07-23T06:44:52;7.68;;;5.85;;
61054;SDS011;46939;48.940;8.258;2022-07-23T06:47:21;9.45;;;5.07;;
61054;SDS011;46939;48.940;8.258;2022-07-23T06:49:53;9.02;;;5.65;;
61054;SDS011;46939;48.940;8.258;2022-07-23T06:52:24;9.00;;;5.97;;
61054;SDS011;46939;48.940;8.258;2022-07-23T06:54:54;7.63;;;5.40;;
61054;SDS011;46939;48.940;8.258;2022-07-23T06:57:22;8.95;;;5.35;;
61054;SDS011;46939;48.940;8.258;2022-07-23T06:59:51;8.27;;;5.45;;
61054;SDS011;46939;48.940;8.258;2022-07-23T07:02:20;6.95;;;5.60;;
61054;SDS011;46939;48.940;8.258;2022-07-23T07:04:49;7.53;;;5.22;;
61054;SDS011;46939;48.940;8.258;2022-07-23T07:07:20;7.97;;;5.75;;
61054;SDS011;46939;48.940;8.258;2022-07-23T07:09:49;10.50;;;5.65;;
61054;SDS011;46939;48.940;8.258;2022-07-23T07:12:18;7.30;;;5.22;;
61054;SDS011;46939;48.940;8.258;2022-07-23T07:14:46;7.55;;;5.65;;
61054;SDS011;46939;48.940;8.258;2022-07-23T07:17:15;8.15;;;5.68;;
61054;SDS011;46939;48.940;8.258;2022-07-23T07:19:43;10.18;;;6.13;;
61054;SDS011;46939;48.940;8.258;2022-07-23T07:22:12;10.52;;;6.20;;
61054;SDS011;46939;48.940;8.258;2022-07-23T07:24:43;10.57;;;6.28;;
61054;SDS011;46939;48.940;8.258;2022-07-23T07:27:12;10.82;;;6.38;;
61054;SDS011;46939;48.940;8.258;2022-07-23T07:29:40;8.63;;;6.07;;
61054;SDS011;46939;48.940;8.258;2022-07-23T07:32:09;8.68;;;5.85;;
61054;SDS011;46939;48.940;8.258;2022-07-23T07:34:37;7.65;;;6.00;;
61054;SDS011;46939;48.940;8.258;2022-07-23T07:37:06;7.63;;;6.03;;
61054;SDS011;46939;48.940;8.258;2022-07-23T07:39:35;10.35;;;5.95;;
61054;SDS011;46939;48.940;8.258;2022-07-23T07:42:06;8.93;;;5.82;;
61054;SDS011;46939;48.940;8.258;2022-07-23T07:44:34;7.00;;;5.30;;
61054;SDS011;46939;48.940;8.258;2022-07-23T07:47:03;8.18;;;5.45;;
61054;SDS011;46939;48.940;8.258;2022-07-23T07:49:33;8.05;;;5.18;;
61054;SDS011;46939;48.940;8.258;2022-07-23T07:52:02;7.72;;;5.43;;
61054;SDS011;46939;48.940;8.258;2022-07-23T07:54:31;6.60;;;4.95;;
61054;SDS011;46939;48.940;8.258;2022-07-23T07:57:00;7.65;;;5.50;;
61054;SDS011;46939;48.940;8.258;2022-07-23T07:59:31;6.80;;;4.78;;
61054;SDS011;46939;48.940;8.258;2022-07-23T08:02:00;8.57;;;5.47;;
61054;SDS011;46939;48.940;8.258;2022-07-23T08:04:28;7.80;;;5.68;;
61054;SDS011;46939;48.940;8.258;2022-07-23T08:06:57;9.23;;;5.07;;
61054;SDS011;46939;48.940;8.258;2022-07-23T08:09:26;7.43;;;5.00;;
61054;SDS011;46939;48.940;8.258;2022-07-23T08:11:54;8.52;;;5.53;;
61054;SDS011;46939;48.940;8.258;2022-07-23T08:14:23;6.68;;;4.90;;
61054;SDS011;46939;48.940;8.258;2022-07-23T08:16:54;7.35;;;5.03;;
61054;SDS011;46939;48.940;8.258;2022-07-23T08:19:22;7.32;;;4.95;;
61054;SDS011;46939;48.940;8.258;2022-07-23T08:21:51;7.03;;;4.88;;
61054;SDS011;46939;48.940;8.258;2022-07-23T08:24:20;8.07;;;5.38;;
61054;SDS011;46939;48.940;8.258;2022-07-23T08:26:48;7.93;;;5.20;;
61054;SDS011;46939;48.940;8.258;2022-07-23T08:29:17;9.20;;;5.70;;
61054;SDS011;46939;48.940;8.258;2022-07-23T08:31:45;7.10;;;5.15;;
61054;SDS011;46939;48.940;8.258;2022-07-23T08:34:16;7.82;;;5.10;;
61054;SDS011;46939;48.940;8.258;2022-07-23T08:36:45;7.80;;;4.93;;
61054;SDS011;46939;48.940;8.258;2022-07-23T08:39:14;7.53;;;4.70;;
61054;SDS011;46939;48.940;8.258;2022-07-23T08:41:42;8.55;;;4.95;;
61054;SDS011;46939;48.940;8.258;2022-07-23T08:44:11;7.05;;;4.88;;
61054;SDS011;46939;48.940;8.258;2022-07-23T08:46:41;7.68;;;5.45;;
61054;SDS011;46939;48.940;8.258;2022-07-23T08:49:11;8.57;;;5.65;;
61054;SDS011;46939;48.940;8.258;2022-07-23T08:51:42;8.88;;;4.70;;
61054;SDS011;46939;48.940;8.258;2022-07-23T08:54:11;6.53;;;4.78;;
61054;SDS011;46939;48.940;8.258;2022-07-23T08:56:40;6.97;;;5.10;;
61054;SDS011;46939;48.940;8.258;2022-07-23T08:59:09;8.25;;;4.88;;
61054;SDS011;46939;48.940;8.258;2022-07-23T09:01:38;7.75;;;5.10;;
61054;SDS011;46939;48.940;8.258;2022-07-23T09:04:07;6.53;;;4.63;;
61054;SDS011;46939;48.940;8.258;2022-07-23T09:06:38;10.00;;;4.97;;
61054;SDS011;46939;48.940;8.258;2022-07-23T09:09:18;6.30;;;4.90;;
61054;SDS011;46939;48.940;8.258;2022-07-23T09:12:01;6.30;;;4.93;;
61054;SDS011;46939;48.940;8.258;2022-07-23T09:14:37;7.95;;;4.93;;
61054;SDS011;46939;48.940;8.258;2022-07-23T09:17:10;7.05;;;5.10;;
61054;SDS011;46939;48.940;8.258;2022-07-23T09:19:40;6.25;;;5.00;;
61054;SDS011;46939;48.940;8.258;2022-07-23T09:22:19;8.25;;;4.90;;
61054;SDS011;46939;48.940;8.258;2022-07-23T09:27:52;8.65;;;4.72;;
61054;SDS011;46939;48.940;8.258;2022-07-23T09:30:22;6.75;;;4.90;;
61054;SDS011;46939;48.940;8.258;2022-07-23T09:33:05;7.00;;;4.43;;
61054;SDS011;46939;48.940;8.258;2022-07-23T09:35:44;9.40;;;4.40;;
61054;SDS011;46939;48.940;8.258;2022-07-23T09:38:14;6.63;;;4.38;;
61054;SDS011;46939;48.940;8.258;2022-07-23T09:40:46;8.18;;;4.88;;
61054;SDS011;46939;48.940;8.258;2022-07-23T09:43:32;11.35;;;5.00;;
61054;SDS011;46939;48.940;8.258;2022-07-23T09:48:46;7.45;;;4.70;;
61054;SDS011;46939;48.940;8.258;2022-07-23T09:51:14;8.55;;;5.07;;
61054;SDS011;46939;48.940;8.258;2022-07-23T09:53:45;6.32;;;4.28;;
61054;SDS011;46939;48.940;8.258;2022-07-23T09:56:16;6.22;;;4.45;;
61054;SDS011;46939;48.940;8.258;2022-07-23T09:58:48;6.65;;;4.30;;
61054;SDS011;46939;48.940;8.258;2022-07-23T10:01:27;7.38;;;4.68;;
61054;SDS011;46939;48.940;8.258;2022-07-23T10:03:56;9.30;;;5.03;;
61054;SDS011;46939;48.940;8.258;2022-07-23T10:06:45;7.53;;;4.03;;
61054;SDS011;46939;48.940;8.258;2022-07-23T10:09:33;5.75;;;4.03;;
61054;SDS011;46939;48.940;8.258;2022-07-23T10:12:22;7.25;;;4.43;;
61054;SDS011;46939;48.940;8.258;2022-07-23T10:15:10;5.68;;;4.05;;
61054;SDS011;46939;48.940;8.258;2022-07-23T10:17:39;5.63;;;4.15;;
61054;SDS011;46939;48.940;8.258;2022-07-23T10:20:07;5.57;;;3.78;;
61054;SDS011;46939;48.940;8.258;2022-07-23T10:22:36;5.22;;;3.80;;
61054;SDS011;46939;48.940;8.258;2022-07-23T10:25:09;7.18;;;4.32;;
61054;SDS011;46939;48.940;8.258;2022-07-23T10:30:43;5.57;;;4.10;;
61054;SDS011;46939;48.940;8.258;2022-07-23T10:33:27;6.22;;;4.60;;
61054;SDS011;46939;48.940;8.258;2022-07-23T10:36:06;6.43;;;4.10;;
61054;SDS011;46939;48.940;8.258;2022-07-23T10:38:42;6.03;;;3.80;;
61054;SDS011;46939;48.940;8.258;2022-07-23T10:41:30;6.00;;;4.20;;
61054;SDS011;46939;48.940;8.258;2022-07-23T10:44:10;6.10;;;4.05;;
61054;SDS011;46939;48.940;8.258;2022-07-23T10:49:32;6.35;;;4.00;;
61054;SDS011;46939;48.940;8.258;2022-07-23T10:57:58;5.25;;;3.78;;
61054;SDS011;46939;48.940;8.258;2022-07-23T11:00:31;5.05;;;3.70;;
61054;SDS011;46939;48.940;8.258;2022-07-23T11:03:01;4.93;;;3.80;;
61054;SDS011;46939;48.940;8.258;2022-07-23T11:05:41;5.60;;;3.65;;
61054;SDS011;46939;48.940;8.258;2022-07-23T11:08:17;5.18;;;3.40;;
61054;SDS011;46939;48.940;8.258;2022-07-23T11:10:48;4.57;;;3.58;;
61054;SDS011;46939;48.940;8.258;2022-07-23T11:13:28;7.07;;;3.78;;
61054;SDS011;46939;48.940;8.258;2022-07-23T11:18:54;5.55;;;4.10;;
61054;SDS011;46939;48.940;8.258;2022-07-23T11:24:11;7.22;;;4.75;;
61054;SDS011;46939;48.940;8.258;2022-07-23T11:26:44;5.65;;;4.03;;
61054;SDS011;46939;48.940;8.258;2022-07-23T11:29:38;6.53;;;4.20;;
61054;SDS011;46939;48.940;8.258;2022-07-23T11:35:18;6.57;;;3.97;;
61054;SDS011;46939;48.940;8.258;2022-07-23T11:37:48;5.20;;;3.78;;
61054;SDS011;46939;48.940;8.258;2022-07-23T11:40:19;6.80;;;4.03;;
61054;SDS011;46939;48.940;8.258;2022-07-23T11:42:52;4.80;;;3.65;;
61054;SDS011;46939;48.940;8.258;2022-07-23T11:45:23;4.70;;;3.67;;
61054;SDS011;46939;48.940;8.258;2022-07-23T11:47:55;7.82;;;4.10;;
61054;SDS011;46939;48.940;8.258;2022-07-23T11:50:24;5.35;;;4.05;;
61054;SDS011;46939;48.940;8.258;2022-07-23T11:52:53;5.43;;;3.95;;
61054;SDS011;46939;48.940;8.258;2022-07-23T11:55:22;5.60;;;3.85;;
61054;SDS011;46939;48.940;8.258;2022-07-23T11:57:53;6.32;;;4.45;;
61054;SDS011;46939;48.940;8.258;2022-07-23T12:00:25;5.65;;;4.20;;
61054;SDS011;46939;48.940;8.258;2022-07-23T12:02:58;5.68;;;4.05;;
61054;SDS011;46939;48.940;8.258;2022-07-23T12:05:29;5.15;;;3.95;;
61054;SDS011;46939;48.940;8.258;2022-07-23T12:08:00;6.75;;;4.03;;
61054;SDS011;46939;48.940;8.258;2022-07-23T12:10:33;5.40;;;4.15;;
61054;SDS011;46939;48.940;8.258;2022-07-23T12:13:04;6.47;;;3.92;;
61054;SDS011;46939;48.940;8.258;2022-07-23T12:15:36;7.05;;;4.05;;
61054;SDS011;46939;48.940;8.258;2022-07-23T12:18:10;6.63;;;3.80;;
61054;SDS011;46939;48.940;8.258;2022-07-23T12:20:40;5.07;;;4.00;;
61054;SDS011;46939;48.940;8.258;2022-07-23T12:23:11;5.90;;;4.07;;
61054;SDS011;46939;48.940;8.258;2022-07-23T12:25:41;5.38;;;4.22;;
61054;SDS011;46939;48.940;8.258;2022-07-23T12:28:13;5.90;;;4.38;;
61054;SDS011;46939;48.940;8.258;2022-07-23T12:30:43;7.50;;;4.00;;
61054;SDS011;46939;48.940;8.258;2022-07-23T12:33:22;6.82;;;4.10;;
61054;SDS011;46939;48.940;8.258;2022-07-23T12:35:52;7.50;;;4.43;;
61054;SDS011;46939;48.940;8.258;2022-07-23T12:38:23;7.15;;;3.92;;
61054;SDS011;46939;48.940;8.258;2022-07-23T12:40:54;5.22;;;4.10;;
61054;SDS011;46939;48.940;8.258;2022-07-23T12:43:25;5.43;;;4.28;;
61054;SDS011;46939;48.940;8.258;2022-07-23T12:45:56;5.60;;;4.00;;
61054;SDS011;46939;48.940;8.258;2022-07-23T12:48:33;6.35;;;3.65;;
61054;SDS011;46939;48.940;8.258;2022-07-23T12:51:03;6.10;;;4.45;;
61054;SDS011;46939;48.940;8.258;2022-07-23T12:53:36;6.78;;;4.60;;
61054;SDS011;46939;48.940;8.258;2022-07-23T12:56:08;4.70;;;4.20;;
61054;SDS011;46939;48.940;8.258;2022-07-23T12:58:39;8.35;;;4.60;;
61054;SDS011;46939;48.940;8.258;2022-07-23T13:01:09;6.20;;;4.35;;
61054;SDS011;46939;48.940;8.258;2022-07-23T13:03:41;7.28;;;4.50;;
61054;SDS011;46939;48.940;8.258;2022-07-23T13:06:10;6.65;;;3.90;;
61054;SDS011;46939;48.940;8.258;2022-07-23T13:08:39;5.45;;;4.07;;
61054;SDS011;46939;48.940;8.258;2022-07-23T13:11:08;5.28;;;4.18;;
61054;SDS011;46939;48.940;8.258;2022-07-23T13:13:36;5.00;;;3.85;;
61054;SDS011;46939;48.940;8.258;2022-07-23T13:16:05;5.35;;;4.00;;
61054;SDS011;46939;48.940;8.258;2022-07-23T13:18:34;6.30;;;3.90;;
61054;SDS011;46939;48.940;8.258;2022-07-23T13:21:05;4.93;;;3.67;;
61054;SDS011;46939;48.940;8.258;2022-07-23T13:23:34;6.40;;;4.25;;
61054;SDS011;46939;48.940;8.258;2022-07-23T13:26:03;7.55;;;4.25;;
61054;SDS011;46939;48.940;8.258;2022-07-23T13:28:32;4.47;;;3.75;;
61054;SDS011;46939;48.940;8.258;2022-07-23T13:31:00;4.28;;;3.70;;
61054;SDS011;46939;48.940;8.258;2022-07-23T13:33:29;4.38;;;3.65;;
61054;SDS011;46939;48.940;8.258;2022-07-23T13:35:58;4.85;;;4.10;;
61054;SDS011;46939;48.940;8.258;2022-07-23T13:38:29;6.50;;;4.25;;
61054;SDS011;46939;48.940;8.258;2022-07-23T13:40:58;5.63;;;3.88;;
61054;SDS011;46939;48.940;8.258;2022-07-23T13:43:28;5.43;;;4.00;;
61054;SDS011;46939;48.940;8.258;2022-07-23T13:45:57;4.90;;;3.70;;
61054;SDS011;46939;48.940;8.258;2022-07-23T13:48:26;4.63;;;3.95;;
61054;SDS011;46939;48.940;8.258;2022-07-23T13:50:54;4.75;;;4.05;;
61054;SDS011;46939;48.940;8.258;2022-07-23T13:53:23;5.88;;;4.03;;
61054;SDS011;46939;48.940;8.258;2022-07-23T13:55:54;5.25;;;3.85;;
61054;SDS011;46939;48.940;8.258;2022-07-23T13:58:23;5.47;;;4.50;;
61054;SDS011;46939;48.940;8.258;2022-07-23T14:00:52;6.03;;;4.35;;
61054;SDS011;46939;48.940;8.258;2022-07-23T14:03:21;4.85;;;3.65;;
61054;SDS011;46939;48.940;8.258;2022-07-23T14:05:51;5.78;;;4.05;;
61054;SDS011;46939;48.940;8.258;2022-07-23T14:08:20;8.48;;;3.92;;
61054;SDS011;46939;48.940;8.258;2022-07-23T14:10:48;5.68;;;4.00;;
61054;SDS011;46939;48.940;8.258;2022-07-23T14:13:20;5.70;;;4.00;;
61054;SDS011;46939;48.940;8.258;2022-07-23T14:15:48;5.95;;;3.47;;
61054;SDS011;46939;48.940;8.258;2022-07-23T14:18:17;5.90;;;4.07;;
61054;SDS011;46939;48.940;8.258;2022-07-23T14:20:45;5.18;;;4.40;;
61054;SDS011;46939;48.940;8.258;2022-07-23T14:23:14;6.05;;;3.97;;
61054;SDS011;46939;48.940;8.258;2022-07-23T14:25:42;6.35;;;4.30;;
61054;SDS011;46939;48.940;8.258;2022-07-23T14:28:11;5.60;;;4.20;;
61054;SDS011;46939;48.940;8.258;2022-07-23T14:30:42;5.00;;;3.88;;
61054;SDS011;46939;48.940;8.258;2022-07-23T14:33:11;5.53;;;4.18;;
61054;SDS011;46939;48.940;8.258;2022-07-23T14:35:40;5.90;;;4.18;;
61054;SDS011;46939;48.940;8.258;2022-07-23T14:38:09;6.60;;;4.20;;
61054;SDS011;46939;48.940;8.258;2022-07-23T14:40:37;4.90;;;4.00;;
61054;SDS011;46939;48.940;8.258;2022-07-23T14:43:06;5.28;;;4.13;;
61054;SDS011;46939;48.940;8.258;2022-07-23T14:45:34;5.43;;;4.35;;
61054;SDS011;46939;48.940;8.258;2022-07-23T14:48:06;5.68;;;4.10;;
61054;SDS011;46939;48.940;8.258;2022-07-23T14:50:34;6.15;;;4.60;;
61054;SDS011;46939;48.940;8.258;2022-07-23T14:53:03;5.03;;;4.20;;
61054;SDS011;46939;48.940;8.258;2022-07-23T14:55:32;5.82;;;3.95;;
61054;SDS011;46939;48.940;8.258;2022-07-23T14:58:01;5.85;;;4.40;;
61054;SDS011;46939;48.940;8.258;2022-07-23T15:00:29;5.63;;;4.00;;
61054;SDS011;46939;48.940;8.258;2022-07-23T15:02:58;7.13;;;4.38;;
61054;SDS011;46939;48.940;8.258;2022-07-23T15:05:29;5.20;;;4.07;;
61054;SDS011;46939;48.940;8.258;2022-07-23T15:07:57;6.63;;;4.32;;
61054;SDS011;46939;48.940;8.258;2022-07-23T15:10:26;6.88;;;4.45;;
61054;SDS011;46939;48.940;8.258;2022-07-23T15:12:55;5.95;;;4.30;;
61054;SDS011;46939;48.940;8.258;2022-07-23T15:15:23;7.20;;;4.65;;
61054;SDS011;46939;48.940;8.258;2022-07-23T15:17:52;5.10;;;4.20;;
61054;SDS011;46939;48.940;8.258;2022-07-23T15:20:20;5.80;;;4.30;;
61054;SDS011;46939;48.940;8.258;2022-07-23T15:22:52;6.15;;;4.30;;
61054;SDS011;46939;48.940;8.258;2022-07-23T15:25:21;6.25;;;4.20;;
61054;SDS011;46939;48.940;8.258;2022-07-23T15:27:49;5.30;;;4.30;;
61054;SDS011;46939;48.940;8.258;2022-07-23T15:30:18;4.75;;;4.25;;
61054;SDS011;46939;48.940;8.258;2022-07-23T15:32:46;5.32;;;4.10;;
61054;SDS011;46939;48.940;8.258;2022-07-23T15:35:15;7.05;;;4.30;;